createdAt,value
2017-12-29T00:01:06.042Z,3.40
2017-12-29T00:03:33.520Z,3.30
2017-12-29T00:06:01.751Z,3.20
2017-12-29T00:08:30.003Z,3.30
2017-12-29T00:10:57.463Z,3.20
2017-12-29T00:13:24.961Z,3.50
2017-12-29T00:15:52.427Z,3.10
2017-12-29T00:18:20.675Z,3.30
2017-12-29T00:20:48.137Z,3.10
2017-12-29T00:23:15.612Z,3.30
2017-12-29T00:25:43.328Z,3.30
2017-12-29T00:28:10.808Z,3.30
2017-12-29T00:30:39.047Z,3.30
2017-12-29T00:33:06.539Z,3.40
2017-12-29T00:35:34.036Z,3.40
2017-12-29T00:38:01.517Z,3.40
2017-12-29T00:40:29.002Z,3.50
2017-12-29T00:42:56.468Z,3.50
2017-12-29T00:45:24.060Z,3.30
2017-12-29T00:47:51.529Z,3.40
2017-12-29T00:50:19.784Z,3.10
2017-12-29T00:52:47.251Z,3.10
2017-12-29T00:55:14.724Z,3.40
2017-12-29T00:57:42.987Z,3.40
2017-12-29T01:00:10.457Z,3.20
2017-12-29T01:02:38.697Z,3.30
2017-12-29T01:05:06.180Z,3.20
2017-12-29T01:07:33.646Z,3.30
2017-12-29T01:10:01.912Z,3.30
2017-12-29T01:12:29.367Z,3.30
2017-12-29T01:14:56.842Z,3.30
2017-12-29T01:17:25.079Z,3.70
2017-12-29T01:19:52.555Z,3.40
2017-12-29T01:22:20.015Z,3.40
2017-12-29T01:24:47.478Z,3.40
2017-12-29T01:27:14.943Z,3.50
2017-12-29T01:29:42.432Z,3.30
2017-12-29T01:32:09.881Z,3.40
2017-12-29T01:34:37.363Z,3.40
2017-12-29T01:37:04.834Z,3.50
2017-12-29T01:39:32.303Z,3.20
2017-12-29T01:41:59.779Z,3.40
2017-12-29T01:44:27.262Z,3.30
2017-12-29T01:46:55.488Z,3.40
2017-12-29T01:49:22.960Z,3.40
2017-12-29T01:51:50.431Z,3.40
2017-12-29T01:54:17.908Z,3.50
2017-12-29T01:56:45.383Z,3.50
2017-12-29T01:59:12.897Z,3.40
2017-12-29T02:01:40.336Z,3.30
2017-12-29T02:04:07.830Z,3.40
2017-12-29T02:06:35.306Z,3.50
2017-12-29T02:09:03.540Z,3.50
2017-12-29T02:11:31.035Z,3.40
2017-12-29T02:13:59.264Z,3.30
2017-12-29T02:16:26.740Z,3.70
2017-12-29T02:18:54.203Z,3.60
2017-12-29T02:21:21.678Z,3.40
2017-12-29T02:23:49.924Z,3.50
2017-12-29T02:26:17.395Z,3.50
2017-12-29T02:28:44.866Z,3.60
2017-12-29T02:31:12.334Z,3.60
2017-12-29T02:33:40.567Z,3.50
2017-12-29T02:36:08.036Z,3.40
2017-12-29T02:38:35.500Z,3.40
2017-12-29T02:41:02.967Z,3.40
2017-12-29T02:43:30.440Z,3.60
2017-12-29T02:45:58.668Z,3.40
2017-12-29T02:48:26.140Z,3.40
2017-12-29T02:50:53.616Z,3.50
2017-12-29T02:53:21.088Z,3.50
2017-12-29T02:55:49.314Z,3.40
2017-12-29T02:58:16.795Z,3.30
2017-12-29T03:00:44.259Z,3.40
2017-12-29T03:03:11.734Z,3.60
2017-12-29T03:05:39.218Z,3.40
2017-12-29T03:08:06.704Z,3.40
2017-12-29T03:10:34.175Z,3.70
2017-12-29T03:13:01.650Z,3.60
2017-12-29T03:15:29.119Z,3.70
2017-12-29T03:17:56.628Z,3.60
2017-12-29T03:20:24.086Z,3.60
2017-12-29T03:22:51.554Z,3.50
2017-12-29T03:25:19.016Z,3.60
2017-12-29T03:27:46.503Z,3.50
2017-12-29T03:30:14.812Z,3.70
2017-12-29T03:32:43.042Z,3.70
2017-12-29T03:35:10.497Z,3.50
2017-12-29T03:37:37.973Z,3.40
2017-12-29T03:40:05.429Z,3.40
2017-12-29T03:42:32.911Z,3.40
2017-12-29T03:45:01.132Z,3.50
2017-12-29T03:47:28.621Z,3.30
2017-12-29T03:49:56.089Z,3.70
2017-12-29T03:52:23.550Z,3.40
2017-12-29T03:54:51.013Z,3.40
2017-12-29T03:57:19.242Z,3.50
2017-12-29T03:59:46.722Z,3.60
2017-12-29T04:02:14.176Z,3.30
2017-12-29T04:04:41.669Z,3.40
2017-12-29T04:07:09.888Z,3.20
2017-12-29T04:09:37.357Z,3.20
2017-12-29T04:12:04.814Z,3.40
2017-12-29T04:14:32.295Z,3.10
2017-12-29T04:16:59.752Z,3.30
2017-12-29T04:19:27.987Z,3.40
2017-12-29T04:21:55.453Z,3.10
2017-12-29T04:24:22.922Z,3.20
2017-12-29T04:26:50.377Z,3.10
2017-12-29T04:29:17.845Z,3.20
2017-12-29T04:31:45.314Z,3.30
2017-12-29T04:34:12.798Z,3.20
2017-12-29T04:36:41.042Z,3.10
2017-12-29T04:39:08.515Z,3.10
2017-12-29T04:41:35.978Z,3.10
2017-12-29T04:44:03.457Z,3.10
2017-12-29T04:46:31.693Z,3.30
2017-12-29T04:48:59.164Z,3.10
2017-12-29T04:51:26.629Z,3.40
2017-12-29T04:53:54.106Z,3.00
2017-12-29T04:56:22.329Z,3.20
2017-12-29T04:58:49.806Z,3.20
2017-12-29T05:01:17.258Z,3.20
2017-12-29T05:03:44.729Z,3.20
2017-12-29T05:06:12.211Z,3.30
2017-12-29T05:08:40.443Z,3.20
2017-12-29T05:11:07.917Z,3.10
2017-12-29T05:13:35.374Z,3.20
2017-12-29T05:16:02.838Z,3.10
2017-12-29T05:18:30.310Z,3.20
2017-12-29T05:20:57.774Z,3.30
2017-12-29T05:23:26.006Z,3.10
2017-12-29T05:25:53.482Z,3.20
2017-12-29T05:28:20.942Z,3.30
2017-12-29T05:30:48.410Z,3.30
2017-12-29T05:33:26.034Z,3.40
2017-12-29T05:35:53.513Z,3.10
2017-12-29T05:38:20.978Z,3.30
2017-12-29T05:40:48.451Z,3.30
2017-12-29T05:43:15.915Z,3.40
2017-12-29T05:45:43.377Z,3.40
2017-12-29T05:48:10.851Z,3.40
2017-12-29T05:50:38.326Z,3.30
2017-12-29T05:53:06.557Z,3.40
2017-12-29T05:55:34.038Z,3.20
2017-12-29T05:58:01.499Z,3.10
2017-12-29T06:00:29.005Z,3.00
2017-12-29T06:02:56.470Z,3.30
2017-12-29T06:05:23.941Z,3.20
2017-12-29T06:07:51.401Z,3.30
2017-12-29T06:10:18.882Z,3.30
2017-12-29T06:12:46.353Z,3.20
2017-12-29T06:15:13.809Z,3.30
2017-12-29T06:17:41.266Z,3.30
2017-12-29T06:20:08.734Z,3.40
2017-12-29T06:22:36.976Z,3.30
2017-12-29T06:25:04.443Z,3.40
2017-12-29T06:27:31.923Z,3.40
2017-12-29T06:29:59.407Z,3.40
2017-12-29T06:32:27.974Z,3.30
2017-12-29T06:34:55.450Z,3.30
2017-12-29T06:37:22.934Z,3.50
2017-12-29T06:39:50.384Z,3.50
2017-12-29T06:42:17.874Z,3.40
2017-12-29T06:44:45.334Z,3.40
2017-12-29T06:47:12.800Z,3.40
2017-12-29T06:49:40.258Z,3.40
2017-12-29T06:52:07.735Z,3.40
2017-12-29T06:54:35.986Z,3.40
2017-12-29T06:57:03.476Z,3.40
2017-12-29T06:59:30.933Z,3.40
2017-12-29T07:01:59.177Z,3.40
2017-12-29T07:04:26.708Z,3.30
2017-12-29T07:06:54.184Z,3.50
2017-12-29T07:09:21.662Z,3.30
2017-12-29T07:11:49.123Z,3.30
2017-12-29T07:14:16.593Z,3.30
2017-12-29T07:16:44.859Z,3.50
2017-12-29T07:19:12.304Z,3.30
2017-12-29T07:21:39.807Z,3.40
2017-12-29T07:24:08.026Z,3.80
2017-12-29T07:26:35.495Z,3.50
2017-12-29T07:29:02.972Z,3.70
2017-12-29T07:31:30.446Z,3.60
2017-12-29T07:33:58.679Z,3.70
2017-12-29T07:36:26.155Z,3.50
2017-12-29T07:38:53.622Z,3.60
2017-12-29T07:41:21.101Z,3.40
2017-12-29T07:43:49.336Z,3.60
2017-12-29T07:46:16.778Z,3.50
2017-12-29T07:48:44.263Z,3.50
2017-12-29T07:51:12.565Z,3.20
2017-12-29T07:53:40.794Z,3.60
2017-12-29T07:56:08.294Z,3.50
2017-12-29T07:58:35.798Z,3.40
2017-12-29T08:01:03.286Z,3.50
2017-12-29T08:03:30.750Z,3.60
2017-12-29T08:05:58.236Z,3.60
2017-12-29T08:08:26.474Z,3.40
2017-12-29T08:10:53.949Z,3.50
2017-12-29T08:13:21.460Z,3.50
2017-12-29T08:15:48.927Z,3.30
2017-12-29T08:18:16.396Z,3.30
2017-12-29T08:20:43.846Z,3.50
2017-12-29T08:23:11.318Z,3.50
2017-12-29T08:25:39.546Z,3.40
2017-12-29T08:28:07.787Z,3.70
2017-12-29T08:30:35.286Z,3.30
2017-12-29T08:33:02.754Z,3.60
2017-12-29T08:35:30.209Z,3.40
2017-12-29T08:37:57.677Z,3.40
2017-12-29T08:40:25.148Z,3.50
2017-12-29T08:42:52.621Z,3.40
2017-12-29T08:45:20.074Z,3.40
2017-12-29T08:47:47.599Z,3.50
2017-12-29T08:50:15.068Z,3.60
2017-12-29T08:52:42.583Z,3.60
2017-12-29T08:55:10.046Z,3.70
2017-12-29T08:57:38.289Z,3.30
2017-12-29T09:00:05.746Z,3.40
2017-12-29T09:02:33.585Z,3.50
2017-12-29T09:05:01.101Z,3.50
2017-12-29T09:07:28.612Z,3.60
2017-12-29T09:09:56.115Z,3.50
2017-12-29T09:12:23.581Z,3.70
2017-12-29T09:14:51.802Z,3.70
2017-12-29T09:17:19.423Z,3.80
2017-12-29T09:19:46.858Z,3.50
2017-12-29T09:22:14.330Z,3.80
2017-12-29T09:24:41.787Z,3.60
2017-12-29T09:27:10.022Z,3.60
2017-12-29T09:29:37.509Z,3.60
2017-12-29T09:32:04.969Z,3.70
2017-12-29T09:34:32.440Z,3.60
2017-12-29T09:37:00.666Z,3.80
2017-12-29T09:39:28.133Z,3.60
2017-12-29T09:41:56.488Z,3.70
2017-12-29T09:44:23.985Z,3.70
2017-12-29T09:46:51.453Z,3.60
2017-12-29T09:49:18.942Z,3.70
2017-12-29T09:51:47.216Z,3.60
2017-12-29T09:54:15.517Z,4.00
2017-12-29T09:56:43.318Z,3.70
2017-12-29T09:59:11.626Z,4.10
2017-12-29T10:01:39.878Z,3.60
2017-12-29T10:04:07.349Z,3.90
2017-12-29T10:06:34.817Z,3.50
2017-12-29T10:09:03.127Z,3.90
2017-12-29T10:11:30.787Z,3.80
2017-12-29T10:13:58.279Z,3.80
2017-12-29T10:16:25.855Z,3.80
2017-12-29T10:18:54.065Z,3.80
2017-12-29T10:21:22.300Z,3.70
2017-12-29T10:23:49.782Z,3.70
2017-12-29T10:26:17.239Z,4.00
2017-12-29T10:28:44.702Z,3.90
2017-12-29T10:31:12.928Z,3.90
2017-12-29T10:33:40.413Z,3.80
2017-12-29T10:36:07.881Z,3.90
2017-12-29T10:38:35.355Z,4.00
2017-12-29T10:41:03.603Z,4.50
2017-12-29T10:43:31.063Z,4.00
2017-12-29T10:45:58.526Z,4.20
2017-12-29T10:48:26.002Z,4.30
2017-12-29T10:50:54.245Z,4.50
2017-12-29T10:53:21.726Z,4.60
2017-12-29T10:55:49.189Z,4.50
2017-12-29T10:58:16.665Z,4.60
2017-12-29T11:00:44.902Z,4.60
2017-12-29T11:03:12.374Z,4.60
2017-12-29T11:05:39.932Z,4.50
2017-12-29T11:08:08.189Z,4.40
2017-12-29T11:10:35.687Z,4.60
2017-12-29T11:13:03.931Z,4.50
2017-12-29T11:15:31.389Z,4.70
2017-12-29T11:17:58.872Z,4.60
2017-12-29T11:20:26.350Z,4.70
2017-12-29T11:22:54.606Z,4.80
2017-12-29T11:25:22.074Z,4.70
2017-12-29T11:27:50.306Z,4.90
2017-12-29T11:30:17.790Z,4.80
2017-12-29T11:32:46.055Z,4.80
2017-12-29T11:35:13.518Z,4.60
2017-12-29T11:37:40.976Z,4.70
2017-12-29T11:40:08.450Z,4.80
2017-12-29T11:42:35.910Z,4.90
2017-12-29T11:45:04.166Z,4.90
2017-12-29T11:47:31.626Z,5.00
2017-12-29T11:49:59.095Z,5.00
2017-12-29T11:52:26.578Z,4.80
2017-12-29T11:54:54.062Z,4.90
2017-12-29T11:57:21.524Z,5.00
2017-12-29T11:59:48.994Z,4.80
2017-12-29T12:02:16.460Z,4.80
2017-12-29T12:04:43.933Z,5.00
2017-12-29T12:07:11.390Z,4.90
2017-12-29T12:09:38.897Z,4.70
2017-12-29T12:12:07.932Z,4.60
2017-12-29T12:14:35.412Z,4.40
2017-12-29T12:17:02.856Z,4.80
2017-12-29T12:19:30.334Z,4.70
2017-12-29T12:21:57.798Z,4.80
2017-12-29T12:24:26.026Z,4.90
2017-12-29T12:26:53.486Z,4.80
2017-12-29T12:29:20.960Z,4.80
2017-12-29T12:31:48.424Z,4.80
2017-12-29T12:34:15.895Z,4.80
2017-12-29T12:36:43.360Z,4.80
2017-12-29T12:39:11.594Z,4.50
2017-12-29T12:41:39.054Z,4.60
2017-12-29T12:44:06.526Z,4.70
2017-12-29T12:46:34.003Z,4.80
2017-12-29T12:49:01.465Z,4.70
2017-12-29T12:51:28.922Z,4.80
2017-12-29T12:53:56.401Z,4.90
2017-12-29T12:56:24.635Z,4.60
2017-12-29T12:58:52.099Z,4.50
2017-12-29T13:01:19.567Z,4.30
2017-12-29T13:03:47.046Z,4.60
2017-12-29T13:06:15.391Z,4.20
2017-12-29T13:08:42.852Z,4.60
2017-12-29T13:11:10.334Z,4.20
2017-12-29T13:13:38.562Z,4.20
2017-12-29T13:16:06.038Z,4.60
2017-12-29T13:18:33.499Z,4.50
2017-12-29T13:21:00.961Z,4.20
2017-12-29T13:23:28.443Z,4.30
2017-12-29T13:25:56.682Z,4.30
2017-12-29T13:28:24.137Z,4.30
2017-12-29T13:30:51.605Z,4.20
2017-12-29T13:33:19.070Z,4.00
2017-12-29T13:35:46.538Z,4.00
2017-12-29T13:38:13.997Z,4.10
2017-12-29T13:40:41.468Z,4.00
2017-12-29T13:43:09.691Z,3.90
2017-12-29T13:45:37.169Z,4.20
2017-12-29T13:48:04.631Z,3.90
2017-12-29T13:50:32.114Z,3.90
2017-12-29T13:52:59.565Z,3.90
2017-12-29T13:55:27.831Z,3.80
2017-12-29T13:57:57.259Z,4.10
2017-12-29T14:00:25.502Z,3.90
2017-12-29T14:02:53.015Z,4.00
2017-12-29T14:05:20.485Z,3.90
2017-12-29T14:07:47.962Z,4.00
2017-12-29T14:10:15.434Z,4.00
2017-12-29T14:12:42.898Z,4.10
2017-12-29T14:15:10.437Z,4.30
2017-12-29T14:17:37.885Z,4.20
2017-12-29T14:20:05.355Z,4.30
2017-12-29T14:22:32.808Z,4.20
2017-12-29T14:25:00.286Z,4.10
2017-12-29T14:27:27.742Z,3.90
2017-12-29T14:29:55.999Z,3.90
2017-12-29T14:32:23.521Z,4.00
2017-12-29T14:34:50.992Z,4.00
2017-12-29T14:37:18.456Z,3.90
2017-12-29T14:39:45.930Z,4.20
2017-12-29T14:42:13.385Z,3.80
2017-12-29T14:44:41.697Z,3.80
2017-12-29T14:47:09.170Z,4.00
2017-12-29T14:49:37.442Z,3.80
2017-12-29T14:52:04.920Z,4.00
2017-12-29T14:54:33.151Z,3.80
2017-12-29T14:57:00.611Z,3.70
2017-12-29T14:59:28.077Z,3.70
2017-12-29T15:01:55.543Z,3.60
2017-12-29T15:04:23.002Z,3.50
2017-12-29T15:06:50.474Z,3.80
2017-12-29T15:09:18.702Z,3.90
2017-12-29T15:11:46.180Z,3.60
2017-12-29T15:14:13.653Z,3.80
2017-12-29T15:16:41.129Z,3.70
2017-12-29T15:19:09.653Z,3.80
2017-12-29T15:21:37.114Z,3.40
2017-12-29T15:24:04.576Z,3.70
2017-12-29T15:26:32.081Z,3.50
2017-12-29T15:28:59.553Z,3.20
2017-12-29T15:31:27.028Z,3.40
2017-12-29T15:33:54.489Z,3.40
2017-12-29T15:36:21.954Z,3.50
2017-12-29T15:38:49.467Z,3.20
2017-12-29T15:41:16.972Z,3.40
2017-12-29T15:43:44.442Z,3.60
2017-12-29T15:46:11.941Z,3.70
2017-12-29T15:48:40.196Z,3.30
2017-12-29T15:54:08.690Z,3.30
2017-12-29T15:56:36.170Z,3.50
2017-12-29T15:59:03.642Z,3.30
2017-12-29T16:01:38.529Z,3.20
2017-12-29T16:04:05.992Z,3.40
2017-12-29T16:06:33.466Z,3.30
2017-12-29T16:09:01.926Z,3.60
2017-12-29T16:11:29.409Z,3.30
2017-12-29T16:13:56.869Z,3.50
2017-12-29T16:16:24.331Z,3.80
2017-12-29T16:18:51.785Z,3.60
2017-12-29T16:21:19.259Z,3.80
2017-12-29T16:23:47.486Z,3.80
2017-12-29T16:26:15.714Z,3.80
2017-12-29T16:28:43.952Z,3.90
2017-12-29T16:31:11.489Z,4.20
2017-12-29T16:33:38.943Z,3.90
2017-12-29T16:36:06.426Z,4.10
2017-12-29T16:38:34.146Z,4.30
2017-12-29T16:41:02.404Z,4.00
2017-12-29T16:43:30.643Z,4.20
2017-12-29T16:45:58.105Z,4.30
2017-12-29T16:48:25.582Z,4.50
2017-12-29T16:50:53.099Z,4.00
2017-12-29T16:53:20.578Z,4.10
2017-12-29T16:55:48.053Z,4.10
2017-12-29T16:58:15.513Z,4.20
2017-12-29T17:00:42.988Z,3.90
2017-12-29T17:03:11.213Z,3.70
2017-12-29T17:05:38.688Z,4.00
2017-12-29T17:08:06.158Z,3.80
2017-12-29T17:10:33.621Z,3.70
2017-12-29T17:13:01.087Z,3.60
2017-12-29T17:15:28.550Z,3.90
2017-12-29T17:17:56.025Z,3.80
2017-12-29T17:20:24.294Z,4.10
2017-12-29T17:22:52.526Z,3.70
2017-12-29T17:25:20.019Z,4.00
2017-12-29T17:27:47.502Z,3.90
2017-12-29T17:30:15.727Z,3.90
2017-12-29T17:32:43.197Z,3.80
2017-12-29T17:35:11.179Z,3.80
2017-12-29T17:37:38.633Z,3.70
2017-12-29T17:40:06.106Z,3.80
2017-12-29T17:42:33.579Z,3.50
2017-12-29T17:45:01.829Z,3.90
2017-12-29T17:47:29.437Z,3.60
2017-12-29T17:49:56.898Z,3.80
2017-12-29T17:52:24.370Z,3.60
2017-12-29T17:54:52.630Z,3.70
2017-12-29T17:57:20.111Z,3.60
2017-12-29T17:59:47.585Z,3.90
2017-12-29T18:02:15.053Z,3.80
2017-12-29T18:04:42.555Z,3.90
2017-12-29T18:07:10.039Z,3.80
2017-12-29T18:09:37.533Z,3.90
2017-12-29T18:12:04.984Z,3.70
2017-12-29T18:14:32.451Z,3.80
2017-12-29T18:16:59.944Z,3.90
2017-12-29T18:19:27.423Z,4.00
2017-12-29T18:21:54.938Z,4.00
2017-12-29T18:24:23.179Z,4.00
2017-12-29T18:26:50.679Z,3.80
2017-12-29T18:29:18.925Z,4.20
2017-12-29T18:31:46.449Z,4.10
2017-12-29T18:34:13.906Z,4.00
2017-12-29T18:36:41.369Z,3.90
2017-12-29T18:39:08.835Z,3.80
2017-12-29T18:41:36.337Z,4.10
2017-12-29T18:44:04.571Z,3.90
2017-12-29T18:46:32.051Z,3.90
2017-12-29T18:48:59.525Z,3.90
2017-12-29T18:51:27.003Z,4.40
2017-12-29T18:53:55.238Z,4.20
2017-12-29T18:56:22.709Z,4.20
2017-12-29T18:58:50.217Z,4.00
2017-12-29T19:01:17.690Z,4.20
2017-12-29T19:03:45.163Z,4.30
2017-12-29T19:06:12.637Z,4.10
2017-12-29T19:08:40.105Z,4.00
2017-12-29T19:11:07.596Z,3.90
2017-12-29T19:13:35.058Z,3.90
2017-12-29T19:16:02.527Z,3.90
2017-12-29T19:18:30.004Z,4.00
2017-12-29T19:20:57.471Z,4.00
2017-12-29T19:23:25.041Z,3.90
2017-12-29T19:25:52.517Z,4.00
2017-12-29T19:28:20.006Z,3.90
2017-12-29T19:30:47.462Z,3.90
2017-12-29T19:33:14.946Z,3.90
2017-12-29T19:35:42.406Z,3.70
2017-12-29T19:38:09.912Z,3.90
2017-12-29T19:40:37.362Z,3.80
2017-12-29T19:43:04.830Z,3.80
2017-12-29T19:45:33.127Z,3.80
2017-12-29T19:48:00.627Z,3.90
2017-12-29T19:50:28.872Z,3.90
2017-12-29T19:52:56.350Z,3.90
2017-12-29T19:55:23.813Z,3.80
2017-12-29T19:57:51.291Z,4.00
2017-12-29T20:00:18.770Z,3.90
2017-12-29T20:02:47.815Z,3.90
2017-12-29T20:05:15.271Z,4.00
2017-12-29T20:07:42.740Z,3.80
2017-12-29T20:10:10.202Z,4.00
2017-12-29T20:12:37.709Z,3.90
2017-12-29T20:15:06.118Z,4.00
2017-12-29T20:17:33.609Z,4.00
2017-12-29T20:20:01.089Z,3.80
2017-12-29T20:22:28.561Z,4.10
2017-12-29T20:24:56.801Z,4.00
2017-12-29T20:27:24.275Z,4.00
2017-12-29T20:29:51.732Z,4.20
2017-12-29T20:32:19.207Z,3.90
2017-12-29T20:34:47.449Z,4.10
2017-12-29T20:37:14.904Z,4.00
2017-12-29T20:39:42.370Z,3.90
2017-12-29T20:42:09.825Z,4.00
2017-12-29T20:44:37.278Z,3.90
2017-12-29T20:47:04.754Z,4.40
2017-12-29T20:49:32.219Z,4.20
2017-12-29T20:52:00.246Z,4.50
2017-12-29T20:54:27.746Z,4.20
2017-12-29T20:56:55.241Z,4.20
2017-12-29T20:59:23.449Z,4.30
2017-12-29T21:01:50.904Z,4.10
2017-12-29T21:04:18.389Z,4.40
2017-12-29T21:06:45.854Z,4.10
2017-12-29T21:09:13.342Z,4.40
2017-12-29T21:11:41.570Z,4.40
2017-12-29T21:14:09.045Z,4.20
2017-12-29T21:16:36.522Z,4.60
2017-12-29T21:19:04.758Z,4.50
2017-12-29T21:21:32.225Z,4.40
2017-12-29T21:23:59.691Z,4.00
2017-12-29T21:26:27.163Z,4.60
2017-12-29T21:28:54.641Z,4.70
2017-12-29T21:31:22.888Z,4.50
2017-12-29T21:33:50.364Z,4.60
2017-12-29T21:36:19.334Z,4.60
2017-12-29T21:38:46.845Z,4.60
2017-12-29T21:41:14.311Z,4.70
2017-12-29T21:43:41.785Z,4.60
2017-12-29T21:46:09.254Z,4.70
2017-12-29T21:48:36.748Z,4.90
2017-12-29T21:51:04.202Z,4.80
2017-12-29T21:53:32.443Z,4.90
2017-12-29T21:56:00.031Z,4.80
2017-12-29T21:58:27.493Z,4.80
2017-12-29T22:00:54.962Z,4.70
2017-12-29T22:03:23.210Z,4.70
2017-12-29T22:05:50.674Z,4.70
2017-12-29T22:08:18.149Z,4.70
2017-12-29T22:10:46.404Z,4.80
2017-12-29T22:13:13.925Z,4.60
2017-12-29T22:15:41.381Z,4.80
2017-12-29T22:18:08.848Z,4.80
2017-12-29T22:20:36.317Z,4.90
2017-12-29T22:23:03.790Z,4.80
2017-12-29T22:25:31.393Z,4.60
2017-12-29T22:27:58.878Z,4.70
2017-12-29T22:30:26.338Z,4.70
2017-12-29T22:32:53.803Z,4.70
2017-12-29T22:35:21.302Z,4.50
2017-12-29T22:37:48.854Z,4.60
2017-12-29T22:40:16.332Z,4.50
2017-12-29T22:42:44.571Z,4.10
2017-12-29T22:45:12.036Z,4.10
2017-12-29T22:47:39.506Z,4.30
2017-12-29T22:50:06.980Z,4.50
2017-12-29T22:52:35.386Z,4.20
2017-12-29T22:55:02.848Z,4.10
2017-12-29T22:57:30.310Z,4.20
2017-12-29T22:59:57.780Z,4.30
2017-12-29T23:02:25.247Z,4.60
2017-12-29T23:04:52.717Z,4.70
2017-12-29T23:07:20.240Z,4.70
2017-12-29T23:09:47.711Z,4.30
2017-12-29T23:12:15.170Z,4.40
2017-12-29T23:14:42.648Z,4.20
2017-12-29T23:17:10.114Z,4.30
2017-12-29T23:19:37.593Z,4.40
2017-12-29T23:22:05.048Z,4.30
2017-12-29T23:24:32.514Z,4.40
2017-12-29T23:27:00.868Z,4.40
2017-12-29T23:29:28.349Z,4.30
2017-12-29T23:31:56.617Z,4.00
2017-12-29T23:34:24.077Z,3.90
2017-12-29T23:36:51.529Z,4.00
2017-12-29T23:39:19.007Z,3.80
2017-12-29T23:41:47.225Z,3.60
2017-12-29T23:44:14.706Z,4.00
2017-12-29T23:46:42.163Z,3.90
2017-12-29T23:49:09.639Z,4.10
2017-12-29T23:51:37.099Z,3.90
2017-12-29T23:54:04.573Z,3.70
2017-12-29T23:56:32.810Z,3.60
2017-12-29T23:59:00.287Z,3.90
